Time;durP1;ratioP1;P1;durP2;ratioP2;P2;SDS_P1;SDS_P2;PMS_P1;PMS_P2;Temp;Humidity;BMP_temperature;BMP_pressure;BME280_temperature;BME280_humidity;BME280_pressure;Samples;Min_cycle;Max_cycle;Signal;HPM_P1;HPM_P2
2022/09/19 00:01:40;;;;;;;;;2.00;2.00;;;;;14.83;52.00;101860.22;5039049;28;45469;-88
2022/09/19 00:04:12;;;;;;;;;1.25;1.00;;;;;14.80;51.89;101860.28;5022702;28;48305;-88
2022/09/19 00:06:41;;;;;;;;;1.00;1.00;;;;;14.76;52.35;101854.28;5039163;28;45741;-88
2022/09/19 00:09:13;;;;;;;;;2.00;2.00;;;;;14.75;51.98;101855.19;5039069;28;45434;-87
2022/09/19 00:11:40;;;;;;;;;2.00;2.00;;;;;14.72;52.24;101857.91;5039677;28;45360;-87
2022/09/19 00:14:06;;;;;;;;;2.50;2.00;;;;;14.65;52.34;101856.34;5038675;28;46342;-87
2022/09/19 00:16:38;;;;;;;;;3.00;2.00;;;;;14.60;52.18;101859.13;5038568;28;45734;-87
2022/09/19 00:19:09;;;;;;;;;2.50;2.00;;;;;14.57;52.70;101866.16;5056649;28;45292;-88
2022/09/19 00:21:41;;;;;;;;;1.75;1.75;;;;;14.49;52.53;101862.00;5056618;28;45542;-87
2022/09/19 00:26:55;;;;;;;;;4.00;3.00;;;;;14.46;53.22;101862.06;5041605;28;45611;-87
2022/09/19 00:29:21;;;;;;;;;3.00;2.25;;;;;14.46;52.45;101855.97;5056654;28;45317;-87
2022/09/19 00:31:46;;;;;;;;;2.00;2.00;;;;;14.48;52.44;101862.03;5038283;28;45378;-88
2022/09/19 00:34:14;;;;;;;;;2.50;1.75;;;;;14.47;52.95;101860.31;5039545;28;48120;-88
2022/09/19 00:36:41;;;;;;;;;2.00;2.00;;;;;14.43;53.58;101863.91;5059038;28;45384;-88
2022/09/19 00:39:24;;;;;;;;;7.00;2.00;;;;;14.41;53.13;101861.34;5059287;28;45398;-87
2022/09/19 00:41:52;;;;;;;;;3.00;2.00;;;;;14.40;52.71;101870.09;5075808;28;45467;-87
2022/09/19 00:44:21;;;;;;;;;2.00;2.00;;;;;14.40;53.38;101869.25;5058683;28;47425;-87
2022/09/19 00:46:50;;;;;;;;;2.00;2.00;;;;;14.37;53.57;101867.53;5058362;28;45946;-87
2022/09/19 00:49:19;;;;;;;;;2.00;2.00;;;;;14.31;53.63;101865.09;5058566;28;45534;-87
2022/09/19 00:51:48;;;;;;;;;2.25;2.25;;;;;14.27;54.01;101869.56;5057609;28;45358;-87
2022/09/19 00:54:20;;;;;;;;;2.00;2.00;;;;;14.24;54.11;101871.41;5031051;28;47127;-87
2022/09/19 00:56:51;;;;;;;;;3.25;2.50;;;;;14.20;54.57;101867.16;5038888;28;45704;-87
2022/09/19 00:59:18;;;;;;;;;2.75;2.75;;;;;14.12;54.34;101869.97;5041965;28;45438;-87
2022/09/19 01:01:45;;;;;;;;;2.75;1.25;;;;;14.07;54.74;101871.84;5024209;28;45298;-87
2022/09/19 01:04:25;;;;;;;;;2.25;2.00;;;;;14.04;54.81;101871.91;5041666;28;46631;-87
2022/09/19 01:07:01;;;;;;;;;2.00;2.00;;;;;14.02;55.17;101869.34;5041783;28;45385;-87
2022/09/19 01:09:36;;;;;;;;;1.00;1.00;;;;;14.01;54.77;101874.63;5041820;28;45486;-88
2022/09/19 01:12:46;;;;;;;;;3.25;1.50;;;;;13.95;54.71;101870.41;5059367;28;45580;-87
2022/09/19 01:15:17;;;;;;;;;3.25;2.50;;;;;13.92;54.48;101873.94;5046166;28;45558;-87
2022/09/19 01:17:54;;;;;;;;;3.75;3.00;;;;;13.89;54.56;101875.75;5059357;28;45761;-87
2022/09/19 01:20:50;;;;;;;;;3.50;2.00;;;;;13.86;54.63;101871.47;5041452;28;45344;-87
2022/09/19 01:23:49;;;;;;;;;2.75;2.00;;;;;13.85;55.32;101879.34;5041144;28;45332;-87
2022/09/19 01:26:43;;;;;;;;;3.75;3.75;;;;;13.82;55.36;101874.19;5059103;28;46280;-87
2022/09/19 01:29:30;;;;;;;;;2.00;2.00;;;;;13.79;54.77;101880.38;5059000;28;45695;-87
2022/09/19 01:31:57;;;;;;;;;2.00;2.00;;;;;13.79;55.07;101879.53;5022851;28;45401;-87
2022/09/19 01:34:39;;;;;;;;;3.75;3.25;;;;;13.78;54.71;101880.41;5060449;28;45291;-88
2022/09/19 01:37:17;;;;;;;;;2.75;2.00;;;;;13.75;55.88;101873.50;5061251;28;46244;-87
2022/09/19 01:39:48;;;;;;;;;2.50;2.25;;;;;13.75;55.50;101879.59;5061006;28;45479;-87
2022/09/19 01:42:17;;;;;;;;;2.00;1.00;;;;;13.75;55.91;101876.97;5061789;28;45462;-87
2022/09/19 01:44:42;;;;;;;;;3.25;2.00;;;;;13.74;54.77;101877.88;5043907;28;45443;-87
2022/09/19 01:47:13;;;;;;;;;3.00;2.00;;;;;13.75;55.02;101878.72;5060611;28;56484;-87
2022/09/19 01:49:51;;;;;;;;;1.50;1.50;;;;;13.78;55.60;101880.41;5060899;28;45350;-87
2022/09/19 01:52:19;;;;;;;;;3.50;2.75;;;;;13.77;55.44;101881.31;5061205;28;45343;-87
2022/09/19 01:55:13;;;;;;;;;1.00;1.00;;;;;13.73;55.08;101884.00;5064071;28;45327;-87
2022/09/19 01:58:05;;;;;;;;;2.75;2.75;;;;;13.74;55.70;101882.22;5040967;28;46217;-87
2022/09/19 02:00:33;;;;;;;;;3.00;3.00;;;;;13.71;55.73;101885.78;5040937;28;45393;-87
2022/09/19 02:03:37;;;;;;;;;4.00;3.25;;;;;13.72;56.19;101881.41;5040598;28;45406;-87
2022/09/19 02:06:16;;;;;;;;;1.75;1.75;;;;;13.71;55.69;101884.94;5049372;28;45441;-87
2022/09/19 02:09:14;;;;;;;;;3.50;1.75;;;;;13.69;55.96;101879.75;5039577;28;47272;-87
2022/09/19 02:11:42;;;;;;;;;2.50;2.25;;;;;13.68;56.58;101880.63;5058216;28;45308;-87
2022/09/19 02:14:16;;;;;;;;;6.25;3.25;;;;;13.67;55.87;101884.16;5039558;28;45422;-87
2022/09/19 02:16:56;;;;;;;;;6.75;2.00;;;;;13.67;56.38;101889.38;5041249;28;45633;-87
2022/09/19 02:19:29;;;;;;;;;2.00;2.00;;;;;13.66;56.00;101890.25;5040644;28;46526;-87
2022/09/19 02:21:58;;;;;;;;;3.00;3.00;;;;;13.62;56.50;101888.63;5040434;28;45779;-87
2022/09/19 02:24:30;;;;;;;;;2.75;2.00;;;;;13.60;56.60;101890.41;5040278;28;45330;-87
2022/09/19 02:27:07;;;;;;;;;3.00;2.00;;;;;13.55;56.32;101892.28;5039938;28;45529;-87
2022/09/19 02:29:48;;;;;;;;;4.00;2.00;;;;;13.52;56.40;101892.34;5040998;28;45247;-87
2022/09/19 02:32:17;;;;;;;;;2.50;2.00;;;;;13.47;56.96;101888.97;5042055;28;45439;-87
2022/09/19 02:34:43;;;;;;;;;3.25;2.25;;;;;13.42;56.85;101880.38;5059574;28;45281;-87
2022/09/19 02:37:36;;;;;;;;;3.00;2.00;;;;;13.38;56.46;101886.56;5060467;28;45299;-87
2022/09/19 02:40:07;;;;;;;;;3.00;3.00;;;;;13.35;57.15;101880.53;5059823;28;47237;-87
2022/09/19 02:43:18;;;;;;;;;2.00;2.00;;;;;13.30;57.07;101887.59;5059838;28;45856;-87
2022/09/19 02:45:51;;;;;;;;;3.50;2.00;;;;;13.24;57.03;101885.09;5044037;28;46732;-87
2022/09/19 02:48:38;;;;;;;;;2.00;1.25;;;;;13.22;57.35;101891.22;5060294;28;45444;-87
2022/09/19 02:51:11;;;;;;;;;2.00;2.00;;;;;13.18;57.50;101886.06;5060329;28;45349;-87
2022/09/19 02:53:46;;;;;;;;;3.00;3.00;;;;;13.14;57.09;101887.03;5054633;28;45347;-87
2022/09/19 02:56:14;;;;;;;;;3.00;3.00;;;;;13.10;57.64;101888.00;5039837;28;45366;-87
2022/09/19 02:58:46;;;;;;;;;4.00;3.00;;;;;13.06;57.57;101888.09;5039607;28;45432;-87
2022/09/19 03:01:17;;;;;;;;;2.00;2.00;;;;;13.02;57.57;101902.97;5039645;28;45267;-87
2022/09/19 03:04:12;;;;;;;;;2.00;1.00;;;;;12.98;58.00;101899.56;5039659;28;45401;-87
2022/09/19 03:07:06;;;;;;;;;5.25;2.50;;;;;12.96;57.83;101900.47;5040969;28;45363;-87
2022/09/19 03:09:32;;;;;;;;;4.00;3.00;;;;;12.95;58.10;101902.25;5057506;28;45468;-87
2022/09/19 03:12:18;;;;;;;;;1.00;1.00;;;;;12.94;58.13;101897.03;5021859;28;48071;-86
2022/09/19 03:14:46;;;;;;;;;3.75;3.00;;;;;12.93;58.12;101895.34;5056752;28;45815;-86
2022/09/19 03:17:16;;;;;;;;;3.25;3.00;;;;;12.87;58.03;101896.31;5039683;28;45424;-87
2022/09/19 03:19:47;;;;;;;;;3.00;3.00;;;;;12.84;58.04;101903.34;5039322;28;45459;-86
2022/09/19 03:22:13;;;;;;;;;6.00;3.00;;;;;12.77;58.50;101893.00;5039047;28;45349;-87
2022/09/19 03:24:38;;;;;;;;;3.75;2.75;;;;;12.75;58.45;101901.78;5038867;28;45512;-87
2022/09/19 03:27:04;;;;;;;;;3.75;2.50;;;;;12.73;58.83;101898.34;5021754;28;57782;-86
2022/09/19 03:29:33;;;;;;;;;4.00;3.00;;;;;12.70;58.56;101901.00;5022650;28;45377;-86
2022/09/19 03:31:58;;;;;;;;;3.00;3.00;;;;;12.67;59.38;101895.84;5055752;28;47233;-87
2022/09/19 03:34:24;;;;;;;;;3.00;3.00;;;;;12.65;58.80;101905.44;5018513;28;68288;-85
2022/09/19 03:36:49;;;;;;;;;4.50;3.00;;;;;12.64;59.16;101901.13;5002027;28;55628;-87
2022/09/19 03:39:14;;;;;;;;;5.00;2.50;;;;;12.60;58.88;101905.53;5018258;28;46293;-86
2022/09/19 03:41:40;;;;;;;;;3.75;3.75;;;;;12.59;59.54;101904.69;5019094;28;45415;-87
2022/09/19 03:44:06;;;;;;;;;3.00;3.00;;;;;12.57;59.15;101909.09;5035345;28;45342;-87
2022/09/19 03:46:32;;;;;;;;;4.00;4.00;;;;;12.55;60.11;101910.84;5036672;28;45462;-86
2022/09/19 03:49:00;;;;;;;;;6.50;3.50;;;;;12.50;60.66;101917.91;5019135;28;45373;-87
2022/09/19 03:51:30;;;;;;;;;3.50;3.25;;;;;12.47;60.18;101920.56;5018237;28;47518;-85
2022/09/19 03:53:55;;;;;;;;;3.25;3.25;;;;;12.44;60.34;101915.38;5026656;28;45342;-87
2022/09/19 03:56:20;;;;;;;;;6.00;3.00;;;;;12.45;60.42;101918.88;5038168;28;62368;-87
2022/09/19 03:58:46;;;;;;;;;7.75;5.00;;;;;12.43;60.27;101912.84;5038766;28;45381;-87
2022/09/19 04:01:15;;;;;;;;;4.75;3.25;;;;;12.41;60.20;101920.69;5038458;28;45443;-87
2022/09/19 04:03:41;;;;;;;;;3.00;3.00;;;;;12.40;60.09;101916.34;5038552;28;45760;-87
2022/09/19 04:06:07;;;;;;;;;2.75;2.00;;;;;12.43;59.79;101918.91;5055441;28;45394;-87
2022/09/19 04:08:33;;;;;;;;;3.00;3.00;;;;;12.46;60.02;101924.09;5038363;28;45324;-87
2022/09/19 04:10:59;;;;;;;;;3.50;3.50;;;;;12.47;59.64;101927.56;5038302;28;46424;-87
2022/09/19 04:13:28;;;;;;;;;3.25;2.00;;;;;12.46;59.71;101921.47;5056630;28;45493;-87
2022/09/19 04:15:54;;;;;;;;;6.00;4.00;;;;;12.44;60.36;101930.22;5038622;28;45381;-87
2022/09/19 04:18:20;;;;;;;;;3.75;3.75;;;;;12.44;60.08;101927.59;5055316;28;45301;-87
2022/09/19 04:20:46;;;;;;;;;3.00;3.00;;;;;12.43;60.41;101926.75;5020931;28;63401;-87
2022/09/19 04:23:16;;;;;;;;;6.25;4.00;;;;;12.42;60.25;101929.38;5037862;28;45811;-87
2022/09/19 04:25:42;;;;;;;;;7.00;5.50;;;;;12.37;60.87;101930.31;5056616;28;45234;-86
2022/09/19 04:28:09;;;;;;;;;5.75;4.00;;;;;12.35;60.33;101926.88;5022006;28;45515;-87
2022/09/19 04:30:38;;;;;;;;;3.00;3.00;;;;;12.33;60.67;101927.78;5054900;28;48247;-87
2022/09/19 04:33:05;;;;;;;;;6.25;5.50;;;;;12.30;61.26;101928.69;5049072;28;45408;-87
2022/09/19 04:35:34;;;;;;;;;6.50;3.00;;;;;12.27;61.12;101936.56;5062072;28;45437;-86
2022/09/19 04:38:03;;;;;;;;;8.00;4.50;;;;;12.25;60.85;101932.28;5062332;28;45446;-87
2022/09/19 04:40:29;;;;;;;;;6.50;4.00;;;;;12.23;60.65;101934.06;5044709;28;48308;-87
2022/09/19 04:42:54;;;;;;;;;6.75;3.75;;;;;12.23;61.83;101928.84;5061915;28;45344;-87
2022/09/19 04:45:22;;;;;;;;;3.75;3.50;;;;;12.21;61.50;101941.91;5061925;28;45331;-87
2022/09/19 04:47:47;;;;;;;;;3.25;3.00;;;;;12.18;61.93;101935.00;5079772;28;45424;-87
2022/09/19 04:50:14;;;;;;;;;6.75;4.00;;;;;12.16;61.39;101944.56;5061023;28;59129;-87
2022/09/19 04:52:40;;;;;;;;;3.75;3.00;;;;;12.12;61.26;101937.69;5079283;28;45430;-87
2022/09/19 04:55:09;;;;;;;;;7.25;5.00;;;;;12.11;61.27;101938.59;5043838;28;45373;-87
2022/09/19 04:57:34;;;;;;;;;6.75;4.00;;;;;12.10;62.07;101947.28;5041943;28;45420;-88
2022/09/19 05:00:00;;;;;;;;;6.50;6.00;;;;;12.06;62.22;101935.19;5040805;28;62717;-89
2022/09/19 05:02:28;;;;;;;;;6.00;6.00;;;;;12.02;62.19;101933.53;5041585;28;45471;-89
2022/09/19 05:04:55;;;;;;;;;13.25;5.00;;;;;11.99;62.17;101936.16;5042013;28;45328;-89
2022/09/19 05:07:21;;;;;;;;;6.75;5.00;;;;;11.96;62.51;101937.09;5040682;28;45586;-89
2022/09/19 05:09:46;;;;;;;;;6.00;3.75;;;;;11.93;62.61;101931.06;5041516;28;45473;-89
2022/09/19 05:12:11;;;;;;;;;7.00;4.50;;;;;11.92;62.33;101935.41;5040449;28;64085;-89
2022/09/19 05:14:37;;;;;;;;;4.00;4.00;;;;;11.94;62.73;101937.97;5059084;28;45294;-89
2022/09/19 05:17:02;;;;;;;;;5.75;3.25;;;;;11.91;62.79;101941.50;5024458;28;56831;-89
2022/09/19 05:19:27;;;;;;;;;5.75;4.25;;;;;11.87;63.11;101942.41;5041117;28;45384;-89
2022/09/19 05:21:55;;;;;;;;;3.00;3.00;;;;;11.87;62.70;101946.75;5040701;28;47107;-89
2022/09/19 05:24:20;;;;;;;;;4.75;2.75;;;;;11.86;62.92;101947.66;5041612;28;45334;-89
2022/09/19 05:26:46;;;;;;;;;3.00;3.00;;;;;11.87;62.73;101949.34;5040866;28;52663;-89
2022/09/19 05:29:17;;;;;;;;;6.00;3.00;;;;;11.86;62.72;101950.25;5058872;28;45331;-89
2022/09/19 05:31:47;;;;;;;;;3.00;3.00;;;;;11.84;63.09;101949.44;5041700;28;45914;-90
2022/09/19 05:34:13;;;;;;;;;3.00;3.00;;;;;11.84;62.93;101957.25;5041783;28;45428;-88
2022/09/19 05:36:42;;;;;;;;;6.00;3.75;;;;;11.82;62.94;101952.91;5060696;28;45528;-90
2022/09/19 05:39:10;;;;;;;;;5.00;3.00;;;;;11.84;62.88;101954.63;5043793;28;47286;-89
2022/09/19 05:41:38;;;;;;;;;6.25;3.75;;;;;11.85;62.63;101962.44;5078554;28;45268;-84
2022/09/19 05:44:03;;;;;;;;;4.25;4.00;;;;;11.85;62.81;101951.13;5077311;28;45280;-84
2022/09/19 05:46:29;;;;;;;;;4.50;4.25;;;;;11.85;62.30;101953.75;5078623;28;45195;-84
2022/09/19 05:48:55;;;;;;;;;5.75;3.75;;;;;11.86;62.66;101958.94;5060435;28;46007;-83
2022/09/19 05:51:20;;;;;;;;;11.00;5.50;;;;;11.85;63.14;101959.84;5059881;28;45395;-85
2022/09/19 05:53:52;;;;;;;;;4.25;4.25;;;;;11.84;63.03;101962.47;5070839;28;66231;-85
2022/09/19 05:56:17;;;;;;;;;7.00;4.25;;;;;11.84;63.13;101965.06;5058027;28;45296;-85
2022/09/19 05:58:42;;;;;;;;;6.50;5.00;;;;;11.81;64.19;101966.84;5022277;28;74774;-85
2022/09/19 06:01:09;;;;;;;;;6.00;6.00;;;;;11.78;63.80;101961.66;5056976;28;69544;-81
2022/09/19 06:03:35;;;;;;;;;6.00;4.00;;;;;11.78;63.33;101961.66;5058033;28;45400;-82
2022/09/19 06:06:08;;;;;;;;;7.00;4.25;;;;;11.81;63.25;101972.06;5039540;28;45464;-84
2022/09/19 06:08:33;;;;;;;;;4.25;4.25;;;;;11.82;63.68;101981.59;5040247;28;46450;-84
2022/09/19 06:10:59;;;;;;;;;6.00;6.00;;;;;11.82;63.29;101971.16;5038820;28;73069;-84
2022/09/19 06:14:13;;;;;;;;;5.50;4.75;;;;;11.84;63.65;101978.97;5058001;28;45433;-83
2022/09/19 06:16:10;;;;;;;;;6.00;3.50;;;;;11.89;63.28;101981.53;5057537;28;45336;-82
2022/09/19 06:18:35;;;;;;;;;8.50;5.75;;;;;11.91;63.69;101985.88;5056296;28;73542;-83
2022/09/19 06:21:01;;;;;;;;;6.00;6.00;;;;;11.91;63.90;101987.63;5057535;28;45292;-83
2022/09/19 06:23:26;;;;;;;;;2.50;1.00;;;;;11.90;63.62;101996.31;5056921;28;66337;-83
2022/09/19 06:25:51;;;;;;;;;6.25;5.00;;;;;11.89;63.54;101992.81;5056827;28;65200;-82
2022/09/19 06:28:17;;;;;;;;;5.00;5.00;;;;;11.91;64.06;102001.53;5056617;28;71521;-83
2022/09/19 06:30:42;;;;;;;;;7.25;6.00;;;;;11.91;64.22;102000.66;5056358;28;68696;-83
2022/09/19 06:33:07;;;;;;;;;7.00;4.50;;;;;11.91;64.88;102004.13;5066008;28;45473;-83
2022/09/19 06:35:33;;;;;;;;;7.50;6.75;;;;;11.90;64.31;102010.22;5077770;28;45408;-82
2022/09/19 06:38:00;;;;;;;;;8.00;6.00;;;;;11.90;64.63;102002.38;5077588;28;45626;-82
2022/09/19 06:40:26;;;;;;;;;11.25;6.50;;;;;11.90;64.90;102009.38;5059633;28;45346;-83
2022/09/19 06:43:03;;;;;;;;;7.25;7.25;;;;;11.92;64.71;102013.69;5077754;28;45248;-83
2022/09/19 06:45:37;;;;;;;;;10.00;7.25;;;;;11.93;64.79;102017.16;5077601;28;45264;-82
2022/09/19 06:48:03;;;;;;;;;6.50;6.50;;;;;11.92;65.20;102023.25;5077172;28;46394;-82
2022/09/19 06:50:28;;;;;;;;;7.00;6.00;;;;;11.90;64.97;102020.66;5077625;28;45339;-82
2022/09/19 06:52:55;;;;;;;;;6.00;6.00;;;;;11.95;65.03;102023.22;5077376;28;45386;-83
2022/09/19 06:55:23;;;;;;;;;7.00;6.75;;;;;11.99;64.88;102028.34;5056940;28;45420;-82
2022/09/19 06:57:56;;;;;;;;;8.75;6.00;;;;;12.01;64.76;102030.94;5056983;28;46293;-83
2022/09/19 07:00:24;;;;;;;;;7.00;7.00;;;;;12.05;64.62;102035.22;5057022;28;45832;-82
2022/09/19 07:02:57;;;;;;;;;6.25;4.00;;;;;12.05;65.31;102032.63;5039110;28;45425;-82
2022/09/19 07:05:22;;;;;;;;;4.25;4.25;;;;;12.12;64.53;102031.66;5038997;28;45403;-83
2022/09/19 07:07:49;;;;;;;;;8.75;7.00;;;;;12.22;64.79;102036.72;5055918;28;75591;-83
2022/09/19 07:10:15;;;;;;;;;4.50;4.50;;;;;12.28;64.03;102042.75;5056884;28;45330;-81
2022/09/19 07:12:40;;;;;;;;;5.50;5.50;;;;;12.35;64.19;102040.88;5056001;28;69282;-81
2022/09/19 07:15:05;;;;;;;;;7.50;5.75;;;;;12.39;63.94;102048.66;5055823;28;65026;-80
2022/09/19 07:17:31;;;;;;;;;9.25;6.25;;;;;12.45;64.15;102046.84;5056371;28;46069;-80
2022/09/19 07:19:56;;;;;;;;;10.25;4.00;;;;;12.52;63.82;102046.72;5038001;28;60319;-81
2022/09/19 07:22:22;;;;;;;;;11.25;7.00;;;;;12.55;64.08;102056.25;5055711;28;67925;-80
2022/09/19 07:24:48;;;;;;;;;6.50;6.50;;;;;12.59;63.80;102061.41;5056723;28;45541;-81
2022/09/19 07:27:13;;;;;;;;;11.25;6.50;;;;;12.63;63.80;102057.00;5056398;28;46432;-81
2022/09/19 07:29:38;;;;;;;;;8.50;7.00;;;;;12.66;63.59;102058.69;5055333;28;45356;-81
2022/09/19 07:32:04;;;;;;;;;7.75;7.00;;;;;12.69;63.39;102056.03;5055270;28;65933;-81
2022/09/19 07:34:31;;;;;;;;;8.00;7.00;;;;;12.73;63.29;102055.09;5076584;28;45537;-82
2022/09/19 07:36:56;;;;;;;;;5.50;4.00;;;;;12.79;63.71;102058.44;5076771;28;45576;-84
2022/09/19 07:39:21;;;;;;;;;6.75;6.00;;;;;12.83;63.89;102054.03;5075778;28;66719;-84
2022/09/19 07:41:47;;;;;;;;;8.00;6.00;;;;;12.86;63.56;102063.59;5058757;28;45417;-83
2022/09/19 07:44:12;;;;;;;;;4.50;4.00;;;;;12.91;63.30;102060.00;5076473;28;48625;-83
2022/09/19 07:47:26;;;;;;;;;6.25;6.25;;;;;13.00;63.55;102064.22;5076331;28;45482;-84
2022/09/19 07:49:23;;;;;;;;;8.25;6.25;;;;;13.10;62.93;102067.50;5061130;28;45435;-84
2022/09/19 07:51:51;;;;;;;;;10.25;7.75;;;;;13.18;62.71;102073.44;5057796;28;59391;-85
2022/09/19 07:54:16;;;;;;;;;5.75;5.00;;;;;13.23;62.78;102062.91;5064843;28;45391;-84
2022/09/19 07:56:41;;;;;;;;;7.50;7.00;;;;;13.29;63.08;102075.88;5037575;28;65409;-85
2022/09/19 07:59:07;;;;;;;;;11.25;8.00;;;;;13.33;62.50;102077.56;5051315;28;47279;-86
2022/09/19 08:01:32;;;;;;;;;8.00;7.00;;;;;13.39;62.69;102073.97;5037417;28;45317;-85
2022/09/19 08:03:57;;;;;;;;;13.50;6.50;;;;;13.47;62.34;102075.53;5033619;28;52449;-86
2022/09/19 08:06:23;;;;;;;;;8.25;7.00;;;;;13.58;62.48;102079.69;5046561;28;45285;-85
2022/09/19 08:08:48;;;;;;;;;6.75;6.75;;;;;13.67;62.27;102089.97;5053665;28;57046;-85
2022/09/19 08:11:13;;;;;;;;;9.00;5.00;;;;;13.74;61.95;102083.72;5037322;28;47298;-85
2022/09/19 08:13:39;;;;;;;;;7.75;4.75;;;;;13.82;62.03;102084.44;5054728;28;45637;-85
2022/09/19 08:16:04;;;;;;;;;6.50;3.50;;;;;13.91;61.78;102086.88;5053973;28;46477;-85
2022/09/19 08:18:30;;;;;;;;;5.75;4.00;;;;;14.02;61.22;102085.75;5055055;28;56926;-85
2022/09/19 08:20:55;;;;;;;;;2.75;2.75;;;;;14.16;60.61;102090.69;5055340;28;45383;-85
2022/09/19 08:23:21;;;;;;;;;3.00;2.00;;;;;14.23;60.26;102093.16;5054066;28;45534;-85
2022/09/19 08:25:47;;;;;;;;;3.00;2.00;;;;;14.31;60.34;102082.50;5036464;28;45480;-84
2022/09/19 08:28:13;;;;;;;;;3.00;1.00;;;;;14.41;59.57;102089.25;5055397;28;45740;-87
2022/09/19 08:30:41;;;;;;;;;2.25;2.00;;;;;14.49;59.54;102089.91;5054659;28;45372;-85
2022/09/19 08:33:08;;;;;;;;;2.00;2.00;;;;;14.58;59.36;102091.50;5025995;28;45462;-82
2022/09/19 08:35:37;;;;;;;;;1.00;1.00;;;;;14.65;58.92;102093.06;5055169;28;46634;-82
2022/09/19 08:38:04;;;;;;;;;3.00;2.50;;;;;14.74;59.33;102097.22;5054407;28;45514;-83
2022/09/19 08:40:34;;;;;;;;;3.75;1.50;;;;;14.81;58.76;102095.31;5036989;28;45488;-82
2022/09/19 08:43:12;;;;;;;;;2.00;2.00;;;;;14.85;58.54;102087.31;5037085;28;45497;-82
2022/09/19 08:45:58;;;;;;;;;0.00;0.00;;;;;14.94;58.04;102091.47;5052677;28;45438;-82
2022/09/19 08:48:29;;;;;;;;;0.50;0.00;;;;;15.03;56.74;102090.38;5054862;28;45708;-85
2022/09/19 08:51:06;;;;;;;;;1.00;0.00;;;;;15.15;56.24;102084.78;5037228;28;45373;-84
2022/09/19 08:53:34;;;;;;;;;1.00;0.00;;;;;15.25;55.64;102088.91;5037017;28;45368;-84
2022/09/19 08:56:00;;;;;;;;;0.00;0.00;;;;;15.32;54.83;102091.34;5036552;28;46223;-84
2022/09/19 08:58:30;;;;;;;;;0.00;0.00;;;;;15.37;53.45;102097.34;5036373;28;45579;-84
2022/09/19 09:00:55;;;;;;;;;0.00;0.00;;;;;15.43;53.91;102092.81;5053399;28;45460;-83
2022/09/19 09:03:41;;;;;;;;;1.00;0.00;;;;;15.51;53.62;102094.31;5035254;28;65681;-84
2022/09/19 09:06:28;;;;;;;;;0.00;0.00;;;;;15.67;53.45;102096.50;5036370;28;46069;-84
2022/09/19 09:09:18;;;;;;;;;0.50;0.50;;;;;15.84;52.63;102098.66;5027530;28;45432;-84
2022/09/19 09:11:49;;;;;;;;;0.00;0.00;;;;;16.02;52.20;102105.13;5054732;28;45380;-83
2022/09/19 09:14:25;;;;;;;;;0.00;0.00;;;;;16.20;51.86;102108.13;5036796;28;45373;-84
2022/09/19 09:17:17;;;;;;;;;0.00;0.00;;;;;16.37;51.29;102105.81;5020617;28;47488;-84
2022/09/19 09:20:04;;;;;;;;;0.00;0.00;;;;;16.52;50.71;102107.09;5058509;28;45408;-84
2022/09/19 09:23:05;;;;;;;;;0.00;0.00;;;;;16.74;50.16;102103.78;5058692;28;45402;-84
2022/09/19 09:25:32;;;;;;;;;0.25;0.00;;;;;16.93;49.09;102110.16;4975954;28;45410;-85
2022/09/19 09:28:04;;;;;;;;;0.00;0.00;;;;;17.05;48.05;102108.00;4985685;28;45683;-83
2022/09/19 09:30:30;;;;;;;;;2.00;0.00;;;;;17.13;47.75;102114.75;4997901;28;45424;-84
2022/09/19 09:33:03;;;;;;;;;0.00;0.00;;;;;17.18;47.21;102109.34;4998071;28;61832;-81
2022/09/19 09:35:39;;;;;;;;;0.00;0.00;;;;;17.21;46.88;102111.84;4999337;28;45307;-83
2022/09/19 09:38:21;;;;;;;;;0.00;0.00;;;;;17.18;47.56;102110.19;4997242;28;45574;-82
2022/09/19 09:43:54;;;;;;;;;0.00;0.00;;;;;17.06;47.14;102115.84;4993514;28;45424;-81
2022/09/19 09:46:29;;;;;;;;;0.00;0.00;;;;;17.02;47.15;102109.84;5009862;28;45424;-82
2022/09/19 09:48:55;;;;;;;;;0.00;0.00;;;;;17.00;46.42;102116.94;4998859;28;45425;-82
2022/09/19 09:51:41;;;;;;;;;1.00;0.00;;;;;16.99;46.21;102114.34;5014131;28;71839;-82
2022/09/19 09:56:14;;;;;;;;;1.00;0.00;;;;;16.99;46.12;102107.34;4989574;28;45410;-82
2022/09/19 09:57:09;;;;;;;;;0.00;0.00;;;;;16.99;46.50;102107.34;4997215;28;45708;-83
2022/09/19 10:05:33;;;;;;;;;0.00;0.00;;;;;16.95;46.34;102105.69;5058059;28;45260;-81
2022/09/19 10:08:19;;;;;;;;;0.00;0.00;;;;;16.96;46.14;102109.22;5057935;28;45538;-81
2022/09/19 10:10:45;;;;;;;;;0.00;0.00;;;;;16.98;45.90;102108.22;5057533;28;46176;-82
2022/09/19 10:13:25;;;;;;;;;0.00;0.00;;;;;16.99;45.25;102102.06;5057863;28;46426;-82
2022/09/19 10:15:54;;;;;;;;;3.00;0.00;;;;;17.02;45.11;102098.47;5040089;28;45423;-82
2022/09/19 10:18:23;;;;;;;;;1.00;0.00;;;;;17.07;45.24;102104.44;5039869;28;45574;-82
2022/09/19 10:20:51;;;;;;;;;0.00;0.00;;;;;17.11;45.04;102097.31;5039564;28;46227;-81
2022/09/19 10:23:23;;;;;;;;;0.00;0.00;;;;;17.15;44.69;102099.75;5057665;28;45533;-82
2022/09/19 10:25:51;;;;;;;;;0.75;0.00;;;;;17.20;44.04;102089.94;5057428;28;45617;-82
2022/09/19 10:28:49;;;;;;;;;0.00;0.00;;;;;17.30;44.33;102098.34;5039697;28;45383;-82
2022/09/19 10:31:28;;;;;;;;;0.00;0.00;;;;;17.39;43.98;102087.50;5056770;28;45506;-82
2022/09/19 10:33:53;;;;;;;;;0.00;0.00;;;;;17.46;43.69;102096.06;5067130;28;45761;-82
2022/09/19 10:36:20;;;;;;;;;0.00;0.00;;;;;17.52;42.94;102098.44;5056586;28;68186;-82
2022/09/19 10:38:59;;;;;;;;;0.00;0.00;;;;;17.59;43.02;102097.31;5057395;28;45592;-82
2022/09/19 10:41:27;;;;;;;;;0.00;0.00;;;;;17.75;43.38;102091.47;5056830;28;45504;-82
2022/09/19 10:43:55;;;;;;;;;1.00;0.00;;;;;17.87;43.81;102085.78;5057376;28;45407;-82
2022/09/19 10:46:31;;;;;;;;;0.00;0.00;;;;;18.03;43.48;102080.75;5057523;28;45371;-82
2022/09/19 10:48:57;;;;;;;;;2.00;0.00;;;;;18.17;42.41;102082.88;5040090;28;45366;-82
2022/09/19 10:51:41;;;;;;;;;0.00;0.00;;;;;18.25;41.10;102075.50;5038296;28;46265;-82
2022/09/19 10:54:12;;;;;;;;;0.00;0.00;;;;;18.36;41.47;102083.00;5038687;28;45361;-82
2022/09/19 10:56:40;;;;;;;;;0.00;0.00;;;;;18.51;41.82;102081.50;5039273;28;45380;-82
2022/09/19 10:59:23;;;;;;;;;0.00;0.00;;;;;18.70;41.25;102086.88;5057261;28;45349;-82
2022/09/19 11:02:25;;;;;;;;;0.00;0.00;;;;;19.02;40.44;102082.91;5022130;28;48542;-82
2022/09/19 11:04:59;;;;;;;;;1.00;0.00;;;;;19.36;40.82;102078.78;5056324;28;45347;-82
2022/09/19 11:07:27;;;;;;;;;1.00;1.00;;;;;19.78;41.82;102080.44;5056143;28;45229;-83
2022/09/19 11:09:59;;;;;;;;;0.00;0.00;;;;;20.15;41.32;102077.84;5056579;28;45556;-82
2022/09/19 11:12:24;;;;;;;;;0.00;0.00;;;;;20.48;40.46;102072.69;5039724;28;45469;-82
2022/09/19 11:14:50;;;;;;;;;0.00;0.00;;;;;20.69;40.06;102076.94;5038621;28;45424;-82
2022/09/19 11:17:37;;;;;;;;;0.00;0.00;;;;;20.78;39.21;102080.06;5038909;28;45394;-83
2022/09/19 11:20:16;;;;;;;;;1.75;0.00;;;;;20.78;38.26;102073.00;5055933;28;45266;-82
2022/09/19 11:23:05;;;;;;;;;1.25;0.00;;;;;20.84;38.71;102077.13;5056084;28;45901;-82
2022/09/19 11:25:41;;;;;;;;;0.75;0.25;;;;;21.71;38.39;102073.44;5056331;28;45430;-82
2022/09/19 11:28:18;;;;;;;;;2.00;0.00;;;;;23.37;36.28;102077.13;5056683;28;45528;-83
2022/09/19 11:31:08;;;;;;;;;0.00;0.00;;;;;26.12;35.54;102080.88;5056424;28;45309;-82
2022/09/19 11:33:53;;;;;;;;;0.00;0.00;;;;;28.86;32.51;102077.91;5050670;28;45455;-82
2022/09/19 11:36:24;;;;;;;;;0.00;0.00;;;;;31.62;29.83;102080.50;5076847;28;45220;-83
2022/09/19 11:38:56;;;;;;;;;0.00;0.00;;;;;33.45;26.25;102082.66;5076547;28;45360;-83
2022/09/19 11:41:24;;;;;;;;;0.75;0.00;;;;;34.59;23.96;102092.00;5076479;28;45375;-83
2022/09/19 11:44:04;;;;;;;;;0.00;0.00;;;;;35.52;22.46;102086.00;5057736;28;45387;-82
2022/09/19 11:46:49;;;;;;;;;0.75;0.00;;;;;36.67;20.79;102089.81;5054413;28;45814;-83
2022/09/19 11:49:51;;;;;;;;;0.75;0.00;;;;;37.38;19.76;102091.03;5036275;28;45270;-83
2022/09/19 11:52:28;;;;;;;;;2.00;0.00;;;;;38.20;18.75;102091.75;5018186;28;45489;-83
2022/09/19 11:55:03;;;;;;;;;2.25;0.00;;;;;38.89;17.80;102090.19;5051031;28;45548;-83
2022/09/19 11:57:37;;;;;;;;;0.00;0.00;;;;;39.28;17.34;102083.28;5056000;28;45269;-83